createdAt,value
2019-04-23T20:32:07.158Z,100404.09
2019-04-23T20:33:40.930Z,100419.73
2019-04-23T20:35:46.922Z,100425.45
2019-04-23T20:38:33.414Z,100417.92
2019-04-23T20:40:48.338Z,100412.53
2019-04-23T20:43:34.583Z,100413.66
2019-04-23T20:45:46.949Z,100405.27
2019-04-23T20:48:37.208Z,100405.80
2019-04-23T20:50:41.010Z,100394.01
2019-04-23T20:53:03.571Z,100401.53
2019-04-23T20:55:54.648Z,100408.19
2019-04-23T20:58:14.194Z,100407.80
2019-04-23T21:01:22.276Z,100408.25
2019-04-23T21:03:49.122Z,100411.75
2019-04-23T21:06:19.392Z,100407.48
2019-04-23T21:11:18.584Z,100404.90
2019-04-23T21:16:13.112Z,100403.16
2019-04-23T21:18:44.291Z,100397.50
2019-04-23T21:23:53.665Z,100393.70
2019-04-23T21:26:01.927Z,100395.09
2019-04-23T21:28:44.447Z,100394.67
2019-04-23T21:31:15.644Z,100392.03
2019-04-23T21:33:59.629Z,100395.53
2019-04-23T21:46:46.903Z,100382.36
2019-04-23T21:54:07.949Z,100378.27
2019-04-23T21:56:44.475Z,100380.80
2019-04-23T21:59:22.787Z,100377.89
2019-04-23T22:01:44.765Z,100376.31
2019-04-23T22:04:15.091Z,100372.97
2019-04-23T22:06:43.405Z,100377.42
2019-04-23T22:09:15.309Z,100368.33
2019-04-23T22:11:56.904Z,100368.42
2019-04-23T22:14:10.288Z,100364.47
2019-04-23T22:16:55.766Z,100360.19
2019-04-23T22:21:47.204Z,100362.88
2019-04-23T22:26:35.348Z,100355.87
2019-04-23T22:29:14.269Z,100354.69
2019-04-23T22:34:08.727Z,100350.47
2019-04-23T22:36:54.871Z,100346.58
2019-04-23T22:39:07.734Z,100343.55
2019-04-23T22:46:48.113Z,100347.23
2019-04-23T22:49:20.066Z,100352.02
2019-04-23T22:56:53.638Z,100340.83
2019-04-23T22:59:26.650Z,100338.73
2019-04-23T23:06:57.330Z,100334.58
2019-04-23T23:09:40.653Z,100328.44
2019-04-23T23:11:49.046Z,100327.55
2019-04-23T23:16:44.981Z,100327.73
2019-04-23T23:21:59.427Z,100326.80
2019-04-23T23:26:49.694Z,100327.02
2019-04-23T23:29:06.344Z,100323.72
2019-04-23T23:31:42.287Z,100321.59
2019-04-23T23:34:09.999Z,100321.66
2019-04-23T23:36:47.633Z,100325.22
2019-04-23T23:39:21.161Z,100318.69
2019-04-23T23:41:44.874Z,100321.38
2019-04-23T23:44:28.448Z,100316.59
2019-04-23T23:49:03.297Z,100309.21
2019-04-23T23:51:40.597Z,100309.27
2019-04-23T23:54:08.234Z,100302.78
2019-04-23T23:57:01.771Z,100303.67
